Latest Weather Observations for Ulladulla

IDN60801

Issued at 10:32 am EDT Tuesday 17 October 2017 (issued every 30 minutes, with the page automatically refreshed every 10 minutes)

About weather observations | Map of weather stations | Latest weather observations for NSW | Other Formats
Station Details ID: 069138 Name: ULLADULLA AWS Lat: -35.36 Lon: 150.48 Height: 35.7 m
Data from the previous 72 hours. | See also: Recent months at Ulladulla
Date/Time
EDT
Temp
°C
App
Temp
°C
Dew
Point
°C
Rel
Hum
%
Delta-T
°C
Wind Press
QNH
hPa
Press
MSL
hPa
Rain since
9am
mm
Dir  Spd
km/h
Gust
km/h
Spd
kts
Gust
kts
17/10:30am 19.3 17.5 12.1 63 4.0 NE 13 20 7 11 1028.0 1027.9 0.0
17/10:00am 19.1 17.6 11.9 63 4.0 ENE 11 17 6 9 1028.1 1028.0 0.0
17/09:30am 18.1 17.7 12.5 70 3.1 NE 6 11 3 6 1028.0 1027.9 0.0
17/09:00am 17.4 16.9 11.9 70 3.0 N 6 9 3 5 1027.9 1027.8 0.0
17/08:30am 17.0 16.5 12.1 73 2.7 N 6 6 3 3 1027.6 1027.5 0.0
17/08:00am 16.5 16.4 12.1 75 2.4 N 4 7 2 4 1027.4 1027.3 0.0
17/07:30am 15.3 15.1 11.7 79 1.9 NNW 4 7 2 4 1027.1 1027.0 0.0
17/07:00am 14.0 13.2 11.0 82 1.6 NNW 6 7 3 4 1026.8 1026.7 0.0
17/06:30am 13.1 12.3 11.7 91 0.7 N 7 9 4 5 1026.5 1026.4 0.0
17/06:00am 13.2 12.8 12.3 94 0.5 N 6 9 3 5 1026.5 1026.4 0.0
17/05:30am 12.7 12.5 11.9 95 0.4 N 4 7 2 4 1026.5 1026.4 0.0
17/05:00am 12.9 12.5 11.1 89 0.9 N 4 4 2 2 1026.6 1026.5 0.0
17/04:30am 12.9 12.4 10.8 87 1.1 N 4 6 2 3 1026.6 1026.5 0.0
17/04:00am 13.1 13.0 10.8 86 1.2 NNW 2 6 1 3 1026.8 1026.7 0.0
17/03:30am 12.7 12.7 9.7 82 1.5 CALM 0 2 0 1 1026.8 1026.7 0.0
17/03:00am 14.0 13.6 11.0 82 1.6 NNW 4 6 2 3 1026.8 1026.7 0.0
17/02:30am 13.7 13.2 10.9 83 1.5 N 4 7 2 4 1027.0 1026.9 0.0
17/02:00am 14.0 13.6 11.2 83 1.5 NNW 4 6 2 3 1027.3 1027.2 0.0
17/01:30am 14.5 13.8 11.5 82 1.6 NNW 6 9 3 5 1027.5 1027.4 0.0
17/01:00am 14.9 14.1 11.7 81 1.7 NNW 7 11 4 6 1027.6 1027.5 0.0
17/12:30am 14.9 14.2 11.9 82 1.6 NNW 7 11 4 6 1027.8 1027.7 0.0
17/12:00am 15.3 14.8 12.1 81 1.7 N 6 9 3 5 1028.0 1027.9 0.0
 
Date/Time
EDT
Temp
°C
App
Temp
°C
Dew
Point
°C
Rel
Hum
%
Delta-T
°C
Wind Press
QNH
hPa
Press
MSL
hPa
Rain since
9am
mm
Dir  Spd
km/h
Gust
km/h
Spd
kts
Gust
kts
16/11:30pm 15.9 15.5 12.3 79 2.0 NNW 6 9 3 5 1028.0 1027.9 0.0
16/11:00pm 16.6 15.7 12.6 77 2.2 N 9 15 5 8 1027.8 1027.7 0.0
16/10:30pm 16.9 15.1 13.4 80 2.0 N 15 22 8 12 1027.6 1027.5 0.0
16/10:00pm 16.8 15.0 13.3 80 2.0 N 15 22 8 12 1027.5 1027.4 0.0
16/09:30pm 17.1 15.1 13.8 81 1.9 N 17 22 9 12 1027.3 1027.2 0.0
16/09:00pm 17.3 17.1 14.6 84 1.5 NNW 9 15 5 8 1027.2 1027.1 0.0
16/08:30pm 17.3 17.7 13.8 80 2.0 NNW 4 9 2 5 1026.9 1026.8 0.0
16/08:00pm 17.6 17.5 13.9 79 2.1 NNE 7 17 4 9 1026.6 1026.5 0.0
16/07:30pm 17.6 17.7 13.9 79 2.1 NNE 6 13 3 7 1026.5 1026.4 0.0
16/07:00pm 17.7 17.0 14.4 81 1.9 NNE 11 24 6 13 1026.2 1026.1 0.0
16/06:30pm 17.9 14.3 14.2 79 2.1 NE 26 35 14 19 1026.0 1025.9 0.0
16/06:00pm 18.2 14.1 13.9 76 2.4 NNE 28 35 15 19 1026.0 1025.9 0.0
16/05:30pm 18.6 16.2 13.7 73 2.8 NNE 19 30 10 16 1025.9 1025.8 0.0
16/05:00pm 19.1 17.1 13.9 72 3.0 NNE 17 26 9 14 1026.0 1025.9 0.0
16/04:30pm 19.4 17.9 14.2 72 3.0 NNE 15 24 8 13 1026.1 1026.0 0.0
16/04:00pm 19.8 19.1 14.4 71 3.1 NE 11 19 6 10 1026.3 1026.2 0.0
16/03:30pm 20.4 19.7 15.4 73 3.0 NE 13 28 7 15 1026.4 1026.3 0.0
16/03:00pm 20.0 18.6 14.6 71 3.1 NE 15 26 8 14 1026.6 1026.5 0.0
16/02:30pm 20.5 18.8 14.8 70 3.3 NE 17 28 9 15 1026.8 1026.7 0.0
16/02:00pm 20.3 18.4 15.1 72 3.0 NE 19 26 10 14 1027.1 1027.0 0.0
16/01:30pm 20.3 19.3 15.5 74 2.8 NE 15 24 8 13 1027.4 1027.3 0.0
16/01:00pm 19.7 18.0 14.7 73 2.9 NE 17 22 9 12 1027.7 1027.6 0.0
16/12:30pm 20.0 19.0 14.6 71 3.2 NE 13 20 7 11 1028.0 1027.9 0.0
16/12:00pm 19.4 18.8 14.6 74 2.8 ENE 11 17 6 9 1028.4 1028.3 0.0
16/11:30am 19.3 18.8 13.7 70 3.2 ENE 9 13 5 7 1028.7 1028.6 0.0
16/11:00am 19.5 19.2 13.2 67 3.6 ENE 7 9 4 5 1028.9 1028.8 0.0
16/10:30am 18.9 18.4 12.2 65 3.7 E 6 9 3 5 1029.0 1028.9 0.0
16/10:00am 18.9 18.7 13.1 69 3.3 SE 6 9 3 5 1028.9 1028.8 0.0
16/09:30am 18.1 18.3 13.2 73 2.8 SE 4 6 2 3 1028.5 1028.4 0.0
16/09:00am 17.4 17.3 13.3 77 2.3 SE 6 7 3 4 1028.3 1028.2 0.0
16/08:30am 16.7 16.9 13.0 79 2.1 S 4 6 2 3 1028.1 1028.0 0.0
16/08:00am 16.0 17.4 14.4 90 0.9 CALM 0 0 0 0 1027.9 1027.8 0.0
16/07:30am 14.9 16.3 14.4 97 0.3 CALM 0 0 0 0 1027.6 1027.5 0.0
16/07:00am 13.5 14.5 13.3 99 0.1 CALM 0 0 0 0 1027.3 1027.2 0.0
16/06:30am 12.6 12.9 12.1 97 0.3 W 2 4 1 2 1026.8 1026.7 0.0
16/06:00am 12.9 12.8 12.1 95 0.4 WSW 4 6 2 3 1026.4 1026.3 0.0
16/05:30am 13.1 12.6 12.5 96 0.3 WSW 7 9 4 5 1026.2 1026.1 0.0
16/05:00am 13.1 12.7 12.3 95 0.4 WSW 6 9 3 5 1025.9 1025.8 0.0
16/04:30am 13.4 12.9 12.6 95 0.4 WSW 7 7 4 4 1025.7 1025.7 0.0
16/04:00am 13.7 13.3 12.9 95 0.4 W 7 9 4 5 1025.7 1025.7 0.0
16/03:30am 13.7 13.2 12.8 94 0.5 W 7 9 4 5 1025.9 1025.8 0.0
16/03:00am 14.0 13.7 13.2 95 0.4 W 7 9 4 5 1026.0 1025.9 0.0
16/02:30am 13.6 12.8 11.8 89 1.0 W 7 9 4 5 1026.2 1026.1 0.0
16/02:00am 13.8 13.3 12.0 89 1.0 WNW 6 6 3 3 1026.3 1026.2 0.0
16/01:30am 14.2 15.0 12.4 89 1.0 CALM 0 4 0 2 1026.4 1026.3 0.0
16/01:00am 14.8 15.7 12.8 88 1.1 CALM 0 0 0 0 1026.6 1026.5 0.0
16/12:30am 15.3 16.5 13.7 90 0.9 CALM 0 0 0 0 1026.7 1026.6 0.0
16/12:00am 15.7 16.9 13.9 89 1.0 CALM 0 0 0 0 1026.6 1026.5 0.0
 
Date/Time
EDT
Temp
°C
App
Temp
°C
Dew
Point
°C
Rel
Hum
%
Delta-T
°C
Wind Press
QNH
hPa
Press
MSL
hPa
Rain since
9am
mm
Dir  Spd
km/h
Gust
km/h
Spd
kts
Gust
kts
15/11:30pm 15.9 17.2 14.1 89 1.0 CALM 0 0 0 0 1026.6 1026.5 0.0
15/11:00pm 16.4 18.2 15.4 94 0.6 CALM 0 2 0 1 1026.6 1026.5 0.0
15/10:30pm 16.3 17.1 14.7 90 0.9 NW 4 7 2 4 1026.4 1026.3 0.0
15/10:00pm 15.7 16.7 13.2 85 1.4 CALM 0 0 0 0 1026.3 1026.2 0.0
15/09:30pm 15.9 16.9 13.2 84 1.5 CALM 0 0 0 0 1026.3 1026.2 0.0
15/09:00pm 16.4 17.5 13.5 83 1.6 CALM 0 2 0 1 1026.0 1025.9 0.0
15/08:30pm 16.9 17.7 13.8 82 1.8 NW 2 6 1 3 1025.7 1025.7 0.0
15/08:00pm 17.2 17.2 13.5 79 2.1 NNE 6 11 3 6 1025.3 1025.3 0.0
15/07:30pm 17.5 16.6 13.6 78 2.2 NE 11 19 6 10 1024.9 1024.9 0.0
15/07:00pm 17.7 16.0 13.6 77 2.3 NE 15 24 8 13 1024.6 1024.6 0.0
15/06:30pm 17.6 15.2 13.7 78 2.2 NNE 19 26 10 14 1024.3 1024.3 0.0
15/06:00pm 17.8 15.1 13.5 76 2.4 NNE 20 28 11 15 1024.1 1024.1 0.0
15/05:30pm 18.0 15.5 13.5 75 2.6 NNE 19 30 10 16 1023.9 1023.9 0.0
15/05:00pm 18.2 16.0 13.3 73 2.8 NNE 17 28 9 15 1023.8 1023.8 0.0
15/04:30pm 18.3 15.8 13.4 73 2.8 NE 19 26 10 14 1023.8 1023.8 0.0
15/04:00pm 18.4 15.6 12.6 69 3.2 NE 19 30 10 16 1023.8 1023.8 0.0
15/03:30pm 18.6 16.2 12.6 68 3.4 NE 17 24 9 13 1023.9 1023.9 0.0
15/03:00pm 19.0 16.2 12.7 67 3.5 NE 19 28 10 15 1024.1 1024.1 0.0
15/02:30pm 19.4 17.1 12.9 66 3.7 NE 17 30 9 16 1024.3 1024.3 0.0
15/02:00pm 19.6 18.2 13.5 68 3.5 NE 13 22 7 12 1024.5 1024.5 0.0
15/01:30pm 19.4 17.2 13.3 68 3.5 NE 17 24 9 13 1024.6 1024.6 0.0
15/01:00pm 19.3 17.1 13.3 68 3.4 NE 17 24 9 13 1024.9 1024.9 0.0
15/12:30pm 19.0 17.1 13.0 68 3.4 NE 15 22 8 12 1025.2 1025.2 0.0
15/12:00pm 19.2 17.7 13.2 68 3.4 NE 13 20 7 11 1025.5 1025.5 0.0
15/11:30am 17.8 16.0 12.0 69 3.2 ENE 13 19 7 10 1025.9 1025.8 0.0
15/11:00am 18.0 16.7 11.1 64 3.7 ENE 9 15 5 8 1026.0 1025.9 0.0
15/10:30am 17.7 16.8 11.3 66 3.5 NE 7 13 4 7 1026.1 1026.0 0.0
15/10:00am 17.2 16.1 10.6 65 3.5 N 7 9 4 5 1026.1 1026.0 0.0
15/09:30am 17.0 16.0 10.4 65 3.5 N 6 9 3 5 1026.0 1025.9 0.0
15/09:00am 17.0 16.0 10.4 65 3.5 NNE 6 9 3 5 1025.6 1025.6 0.0
15/08:30am 16.9 16.0 10.5 66 3.4 NW 6 7 3 4 1025.5 1025.5 0.0
15/08:00am 16.1 15.6 10.6 70 2.9 NW 4 6 2 3 1025.2 1025.2 0.0
15/07:30am 14.4 13.7 10.2 76 2.2 NW 4 7 2 4 1025.2 1025.2 0.0
15/07:00am 13.5 12.3 9.7 78 1.9 NW 6 7 3 4 1024.8 1024.8 0.0
15/06:30am 12.3 11.4 9.1 81 1.6 NW 4 7 2 4 1024.6 1024.6 0.0
15/06:00am 11.7 10.3 8.7 82 1.5 NW 6 7 3 4 1024.6 1024.6 0.0
15/05:30am 12.1 10.7 8.8 80 1.6 NW 6 7 3 4 1024.4 1024.4 0.0
15/05:00am 11.4 9.9 8.6 83 1.4 NW 6 6 3 3 1024.2 1024.2 0.0
15/04:30am 11.4 11.0 8.4 82 1.5 CALM 0 0 0 0 1024.3 1024.3 0.0
15/04:00am 11.7 11.0 8.4 80 1.6 NW 2 4 1 2 1024.3 1024.3 0.0
15/03:30am 11.9 10.5 8.9 82 1.5 NW 6 7 3 4 1024.5 1024.5 0.0
15/03:00am 11.5 10.5 8.7 83 1.4 WNW 4 6 2 3 1024.7 1024.7 0.0
15/02:30am 11.7 11.5 8.9 83 1.4 CALM 0 0 0 0 1025.0 1025.0 0.0
15/02:00am 12.5 12.0 9.5 82 1.5 WNW 2 4 1 2 1025.2 1025.2 0.0
15/01:30am 12.5 11.5 9.0 79 1.8 WNW 4 6 2 3 1025.3 1025.3 0.0
15/01:00am 12.4 11.3 8.5 77 1.9 WNW 4 4 2 2 1025.5 1025.5 0.0
15/12:30am 12.8 11.8 8.7 76 2.1 WNW 4 6 2 3 1025.6 1025.6 0.0
15/12:00am 13.0 11.9 8.3 73 2.3 WNW 4 6 2 3 1025.7 1025.7 0.0
 
Date/Time
EDT
Temp
°C
App
Temp
°C
Dew
Point
°C
Rel
Hum
%
Delta-T
°C
Wind Press
QNH
hPa
Press
MSL
hPa
Rain since
9am
mm
Dir  Spd
km/h
Gust
km/h
Spd
kts
Gust
kts
14/11:30pm 14.1 13.4 8.7 70 2.7 NNE 2 4 1 2 1026.1 1026.0 0.0
14/11:00pm 14.8 14.7 9.4 70 2.8 CALM 0 0 0 0 1026.3 1026.2 0.0
14/10:30pm 15.3 14.9 9.7 69 2.9 NE 2 6 1 3 1026.3 1026.2 0.0
14/10:00pm 15.4 15.3 9.5 68 3.0 CALM 0 2 0 1 1026.4 1026.3 0.0
14/09:30pm 15.7 14.9 9.8 68 3.1 NE 4 7 2 4 1026.2 1026.1 0.0
14/09:00pm 15.8 14.7 9.9 68 3.1 NE 6 9 3 5 1026.3 1026.2 0.0
14/08:30pm 15.8 14.4 9.7 67 3.2 NNE 7 11 4 6 1026.1 1026.0 0.0
14/08:00pm 15.6 14.4 9.5 67 3.1 NNE 6 9 3 5 1025.9 1025.8 0.0
14/07:30pm 15.6 14.7 9.3 66 3.3 NE 4 6 2 3 1025.4 1025.4 0.0
14/07:00pm 15.7 14.7 8.7 63 3.6 NE 4 7 2 4 1025.1 1025.1 0.0
14/06:30pm 16.0 15.3 8.7 62 3.7 NE 2 6 1 3 1024.8 1024.8 0.0
14/06:00pm 16.0 14.9 8.5 61 3.8 ENE 4 7 2 4 1024.6 1024.6 0.0
14/05:30pm 16.4 15.2 8.1 58 4.2 E 4 7 2 4 1024.5 1024.5 0.0
14/05:00pm 16.6 15.0 8.1 57 4.3 SE 6 9 3 5 1024.3 1024.3 0.0
14/04:30pm 16.7 14.6 8.1 57 4.4 SSE 9 15 5 8 1024.1 1024.1 0.0
14/04:00pm 17.2 14.7 8.4 56 4.5 SSE 11 17 6 9 1024.2 1024.2 0.0
14/03:30pm 17.7 15.2 8.0 53 4.9 SSE 11 15 6 8 1024.3 1024.3 0.0
14/03:00pm 17.9 15.5 8.7 55 4.7 S 11 17 6 9 1024.5 1024.5 0.0
14/02:30pm 17.9 15.0 8.2 53 5.0 S 13 17 7 9 1024.9 1024.9 0.0
14/02:00pm 17.1 13.4 8.0 55 4.6 S 17 22 9 12 1025.1 1025.1 0.0
14/01:30pm 17.1 13.5 8.3 56 4.5 S 17 22 9 12 1025.0 1025.0 0.0
14/01:00pm 16.1 12.0 7.8 58 4.1 S 19 22 10 12 1025.3 1025.3 0.0
14/12:30pm 16.0 13.2 8.5 61 3.8 S 13 22 7 12 1025.5 1025.5 0.0
14/12:00pm 16.0 12.8 8.5 61 3.8 S 15 24 8 13 1025.7 1025.7 0.0
14/11:30am 15.7 12.4 8.2 61 3.8 S 15 22 8 12 1025.9 1025.8 0.0
14/11:00am 15.5 11.9 8.3 62 3.6 SSE 17 24 9 13 1026.0 1025.9 0.0

Other Formats:

Comma delimited format used in spreadsheet applications
http://www.bom.gov.au/fwo/IDN60801/IDN60801.94938.axf

JavaScript Object Notation format (JSON) in row-major order
http://www.bom.gov.au/fwo/IDN60801/IDN60801.94938.json